createdAt,value
2022-12-17T00:18:29.331Z,18.6
2022-12-17T00:48:29.387Z,18.5
2022-12-17T01:18:29.392Z,18.4
2022-12-17T01:48:29.036Z,18.4
2022-12-17T02:18:29.330Z,18.3
2022-12-17T02:48:29.286Z,18.1
2022-12-17T03:18:29.303Z,18.0
2022-12-17T03:48:29.318Z,18.0
2022-12-17T04:18:29.310Z,17.9
2022-12-17T04:48:29.324Z,17.8
2022-12-17T05:18:29.307Z,17.7
2022-12-17T05:48:29.310Z,17.7
2022-12-17T06:18:29.337Z,18.0
2022-12-17T06:48:29.324Z,18.3
2022-12-17T07:18:29.334Z,18.5
2022-12-17T07:48:29.330Z,18.6
2022-12-17T08:18:29.353Z,18.6
2022-12-17T08:48:29.378Z,18.6
2022-12-17T09:18:29.317Z,18.6
2022-12-17T09:48:29.347Z,18.4
2022-12-17T10:18:29.309Z,18.5
2022-12-17T10:48:29.070Z,18.5
2022-12-17T11:18:29.310Z,18.2
2022-12-17T11:48:29.343Z,18.1
2022-12-17T12:18:29.353Z,18.0
2022-12-17T12:48:29.410Z,17.9
2022-12-17T13:18:29.055Z,17.9
2022-12-17T13:48:29.349Z,17.9
2022-12-17T14:18:29.434Z,18.0
2022-12-17T14:48:29.351Z,18.0
2022-12-17T15:18:29.393Z,18.1
2022-12-17T15:48:29.374Z,18.0
2022-12-17T16:18:29.398Z,17.9
2022-12-17T16:48:29.391Z,17.8
2022-12-17T17:18:29.335Z,17.6
2022-12-17T17:48:29.399Z,17.5
2022-12-17T18:18:29.502Z,17.6
2022-12-17T18:48:29.467Z,17.6
2022-12-17T19:18:29.375Z,17.6
2022-12-17T19:48:29.369Z,17.6
2022-12-17T20:18:29.408Z,17.5
2022-12-17T20:48:29.397Z,17.4
2022-12-17T21:18:29.359Z,17.3
2022-12-17T21:48:29.411Z,17.3
2022-12-17T22:18:29.419Z,17.3
2022-12-17T22:48:29.404Z,17.2
2022-12-17T23:18:29.394Z,17.1
2022-12-17T23:48:29.388Z,17.1
